createdAt,value
2019-01-14T00:10:19.758Z,1.70
2019-01-14T00:13:13.344Z,1.80
2019-01-14T00:18:55.777Z,1.60
2019-01-14T00:22:20.629Z,1.70
2019-01-14T00:24:52.654Z,1.57
2019-01-14T00:27:43.862Z,1.60
2019-01-14T00:34:20.844Z,1.70
2019-01-14T00:37:34.803Z,1.70
2019-01-14T00:40:04.548Z,1.70
2019-01-14T00:42:48.620Z,1.50
2019-01-14T00:46:15.510Z,1.80
2019-01-14T00:49:13.878Z,1.80
2019-01-14T00:52:13.227Z,1.80
2019-01-14T01:10:33.944Z,1.60
2019-01-14T01:14:20.144Z,1.90
2019-01-14T01:17:16.682Z,1.80
2019-01-14T01:22:51.963Z,1.90
2019-01-14T01:25:58.873Z,2.00
2019-01-14T01:28:52.202Z,1.80
2019-01-14T01:32:06.268Z,1.80
2019-01-14T01:34:57.449Z,1.80
2019-01-14T01:37:56.316Z,1.90
2019-01-14T01:43:20.385Z,2.10
2019-01-14T01:46:11.625Z,1.70
2019-01-14T01:52:12.681Z,1.80
2019-01-14T01:55:11.318Z,2.33
2019-01-14T01:57:52.752Z,1.90
2019-01-14T02:00:52.273Z,2.00
2019-01-14T02:03:57.913Z,2.10
2019-01-14T02:06:42.546Z,2.03
2019-01-14T02:09:50.188Z,1.93
2019-01-14T02:13:12.705Z,1.90
2019-01-14T02:16:41.005Z,2.00
2019-01-14T02:19:03.971Z,2.27
2019-01-14T02:22:17.220Z,2.20
2019-01-14T02:24:58.594Z,1.87
2019-01-14T02:27:33.720Z,1.90
2019-01-14T02:30:45.509Z,1.93
2019-01-14T02:34:00.348Z,2.17
2019-01-14T02:37:10.700Z,1.83
2019-01-14T02:40:33.176Z,2.00
2019-01-14T02:52:39.567Z,1.90
2019-01-14T02:55:29.501Z,2.13
2019-01-14T02:58:19.043Z,2.00
2019-01-14T03:04:40.678Z,1.90
2019-01-14T03:07:47.078Z,2.00
2019-01-14T03:10:57.548Z,2.10
2019-01-14T03:13:29.277Z,2.00
2019-01-14T03:16:28.360Z,1.90
2019-01-14T03:24:57.972Z,2.20
2019-01-14T03:27:48.981Z,2.00
2019-01-14T03:30:39.132Z,1.90
2019-01-14T03:36:25.797Z,2.00
2019-01-14T03:39:17.475Z,2.03
2019-01-14T03:48:48.193Z,2.00
2019-01-14T03:55:32.394Z,2.00
2019-01-14T03:58:09.197Z,2.23
2019-01-14T04:00:43.755Z,2.20
2019-01-14T04:03:42.017Z,2.00
2019-01-14T04:06:23.940Z,2.00
2019-01-14T04:09:07.399Z,2.00
2019-01-14T04:14:44.960Z,2.00
2019-01-14T04:15:44.823Z,1.90
2019-01-14T04:18:56.593Z,1.87
2019-01-14T04:21:49.053Z,1.90
2019-01-14T04:24:55.983Z,2.03
2019-01-14T04:27:56.140Z,2.03
2019-01-14T04:30:58.149Z,2.00
2019-01-14T04:37:05.918Z,1.80
2019-01-14T04:39:41.999Z,1.90
2019-01-14T04:42:12.778Z,2.00
2019-01-14T04:44:44.481Z,1.90
2019-01-14T04:47:19.035Z,2.10
2019-01-14T04:49:51.333Z,2.00
2019-01-14T04:52:32.302Z,2.00
2019-01-14T04:55:13.195Z,2.27
2019-01-14T04:57:46.519Z,2.20
2019-01-14T05:00:26.257Z,2.10
2019-01-14T05:03:01.826Z,1.90
2019-01-14T05:05:39.535Z,2.20
2019-01-14T05:08:43.608Z,2.00
2019-01-14T05:11:44.030Z,2.00
2019-01-14T05:14:33.676Z,2.10
2019-01-14T05:26:15.476Z,2.00
2019-01-14T05:32:20.530Z,2.20
2019-01-14T05:35:36.813Z,2.00
2019-01-14T05:41:27.038Z,2.10
2019-01-14T05:44:26.292Z,1.90
2019-01-14T05:47:15.507Z,2.00
2019-01-14T05:58:48.074Z,2.30
2019-01-14T06:01:39.822Z,2.10
2019-01-14T06:08:49.818Z,2.33
2019-01-14T06:11:56.658Z,2.30
2019-01-14T06:14:48.009Z,2.20
2019-01-14T06:18:06.941Z,2.03
2019-01-14T06:21:27.387Z,2.10
2019-01-14T06:24:21.638Z,2.10
2019-01-14T06:30:06.482Z,2.10
2019-01-14T06:32:33.091Z,2.43
2019-01-14T06:48:31.151Z,2.20
2019-01-14T06:51:02.956Z,2.20
2019-01-14T06:53:47.883Z,2.30
2019-01-14T06:56:10.797Z,2.23
2019-01-14T06:58:48.562Z,2.40
2019-01-14T07:01:26.447Z,2.50
2019-01-14T07:04:30.199Z,2.20
2019-01-14T07:07:02.878Z,2.20
2019-01-14T07:10:04.477Z,2.40
2019-01-14T07:12:46.126Z,2.40
2019-01-14T07:15:26.424Z,2.80
2019-01-14T07:18:06.949Z,2.20
2019-01-14T07:20:49.674Z,2.30
2019-01-14T07:23:36.192Z,2.23
2019-01-14T07:26:09.710Z,2.70
2019-01-14T07:29:28.233Z,2.60
2019-01-14T07:31:56.115Z,2.30
2019-01-14T07:34:31.785Z,2.40
2019-01-14T07:37:14.225Z,2.33
2019-01-14T07:42:18.349Z,2.60
2019-01-14T07:44:55.883Z,2.30
2019-01-14T07:48:27.058Z,2.33
2019-01-14T07:50:24.616Z,2.47
2019-01-14T07:53:04.645Z,2.60
2019-01-14T07:55:47.144Z,2.40
2019-01-14T07:58:25.110Z,2.60
2019-01-14T08:00:58.853Z,2.67
2019-01-14T08:03:30.690Z,2.30
2019-01-14T08:06:01.427Z,2.30
2019-01-14T08:08:32.908Z,2.60
2019-01-14T08:12:02.411Z,2.70
2019-01-14T08:15:01.691Z,2.67
2019-01-14T08:21:23.756Z,2.60
2019-01-14T08:28:18.820Z,2.50
2019-01-14T08:37:24.473Z,2.47
2019-01-14T08:40:15.754Z,2.37
2019-01-14T08:43:20.488Z,2.20
2019-01-14T08:46:43.517Z,2.60
2019-01-14T08:49:44.608Z,2.63
2019-01-14T08:56:45.395Z,2.27
2019-01-14T08:58:15.138Z,2.30
2019-01-14T09:08:20.085Z,2.50
2019-01-14T09:17:34.755Z,2.40
2019-01-14T09:26:20.952Z,2.40
2019-01-14T09:29:10.549Z,2.20
2019-01-14T09:38:58.708Z,2.37
2019-01-14T09:56:58.396Z,2.30
2019-01-14T10:14:59.554Z,1.97
2019-01-14T10:18:24.759Z,1.97
2019-01-14T10:22:20.514Z,2.40
2019-01-14T10:33:42.603Z,1.87
2019-01-14T10:36:59.925Z,1.90
2019-01-14T10:40:20.549Z,2.00
2019-01-14T10:43:22.230Z,1.93
2019-01-14T10:49:44.104Z,1.27
2019-01-14T11:08:26.327Z,0.97
2019-01-14T11:10:36.355Z,0.80
2019-01-14T11:13:43.343Z,0.97
2019-01-14T11:27:25.411Z,1.00
2019-01-14T11:30:05.947Z,1.10
2019-01-14T11:33:13.859Z,1.23
2019-01-14T11:39:20.767Z,1.30
2019-01-14T11:42:29.447Z,1.43
2019-01-14T11:45:58.450Z,1.27
2019-01-14T11:49:23.435Z,1.60
2019-01-14T11:55:20.371Z,1.00
2019-01-14T12:01:47.318Z,1.00
2019-01-14T12:10:55.369Z,1.60
2019-01-14T12:14:10.440Z,1.60
2019-01-14T12:23:16.711Z,1.70
2019-01-14T12:29:48.403Z,1.77
2019-01-14T12:32:38.649Z,1.60
2019-01-14T12:35:45.902Z,2.30
2019-01-14T12:45:53.714Z,1.70
2019-01-14T12:48:03.541Z,1.60
2019-01-14T13:14:38.775Z,1.80
2019-01-14T13:16:58.377Z,1.90
2019-01-14T13:20:19.604Z,1.87
2019-01-14T13:23:10.528Z,1.77
2019-01-14T13:26:26.657Z,1.80
2019-01-14T13:29:35.065Z,1.90
2019-01-14T13:32:25.606Z,1.93
2019-01-14T13:35:45.508Z,2.07
2019-01-14T13:45:02.814Z,2.03
2019-01-14T13:47:20.513Z,2.17
2019-01-14T13:50:51.805Z,2.20
2019-01-14T13:52:54.469Z,2.13
2019-01-14T13:55:59.255Z,2.20
2019-01-14T14:13:44.515Z,2.00
2019-01-14T14:17:18.300Z,2.10
2019-01-14T14:20:49.606Z,2.10
2019-01-14T14:23:40.642Z,2.00
2019-01-14T14:29:22.356Z,1.90
2019-01-14T14:50:05.976Z,2.00
2019-01-14T14:52:40.684Z,2.37
2019-01-14T14:55:13.386Z,2.00
2019-01-14T14:57:45.655Z,1.80
2019-01-14T15:00:18.617Z,2.20
2019-01-14T15:02:52.605Z,2.47
2019-01-14T15:05:23.277Z,2.00
2019-01-14T15:07:53.638Z,2.13
2019-01-14T15:10:28.340Z,2.30
2019-01-14T15:12:59.450Z,1.93
2019-01-14T15:15:31.179Z,2.60
2019-01-14T15:18:26.586Z,1.90
2019-01-14T15:21:01.536Z,1.90
2019-01-14T15:23:37.802Z,2.00
2019-01-14T15:26:11.700Z,2.03
2019-01-14T15:28:44.209Z,1.90
2019-01-14T15:31:19.355Z,1.90
2019-01-14T15:33:52.464Z,1.83
2019-01-14T15:36:37.336Z,2.03
2019-01-14T15:39:09.713Z,1.80
2019-01-14T15:41:46.235Z,2.00
2019-01-14T15:59:14.298Z,1.97
2019-01-14T16:11:09.994Z,1.90
2019-01-14T16:17:47.389Z,2.00
2019-01-14T16:31:16.176Z,1.80
2019-01-14T16:43:13.137Z,2.00
2019-01-14T16:45:47.498Z,2.10
2019-01-14T16:48:17.969Z,2.50
2019-01-14T16:51:26.070Z,1.90
2019-01-14T16:53:58.081Z,2.00
2019-01-14T16:56:28.545Z,1.90
2019-01-14T16:58:59.626Z,1.90
2019-01-14T17:01:33.697Z,2.10
2019-01-14T17:04:14.997Z,1.90
2019-01-14T17:06:59.589Z,2.20
2019-01-14T17:09:25.534Z,1.80
2019-01-14T17:11:55.979Z,2.37
2019-01-14T17:14:30.520Z,1.80
2019-01-14T17:17:29.635Z,2.00
2019-01-14T17:20:01.721Z,2.70
2019-01-14T17:22:37.976Z,2.73
2019-01-14T17:25:13.421Z,2.00
2019-01-14T17:27:46.935Z,2.10
2019-01-14T17:30:23.274Z,2.30
2019-01-14T17:32:55.837Z,2.23
2019-01-14T17:35:39.328Z,1.90
2019-01-14T17:38:30.773Z,1.90
2019-01-14T17:41:19.157Z,1.97
2019-01-14T17:44:08.751Z,1.97
2019-01-14T17:52:29.907Z,2.07
2019-01-14T17:55:08.736Z,1.90
2019-01-14T18:07:04.952Z,1.70
2019-01-14T18:22:47.798Z,2.80
2019-01-14T18:28:04.905Z,1.90
2019-01-14T18:30:38.762Z,1.70
2019-01-14T18:33:14.113Z,1.90
2019-01-14T18:35:47.992Z,2.00
2019-01-14T18:38:32.892Z,2.33
2019-01-14T18:47:47.387Z,2.10
2019-01-14T18:54:01.459Z,2.07
2019-01-14T18:58:18.578Z,1.70
2019-01-14T19:00:55.044Z,1.90
2019-01-14T19:03:52.929Z,2.00
2019-01-14T19:07:32.728Z,1.80
2019-01-14T19:22:28.861Z,1.80
2019-01-14T19:25:00.493Z,1.83
2019-01-14T19:27:36.780Z,1.90
2019-01-14T19:30:11.836Z,1.80
2019-01-14T19:32:43.066Z,1.93
2019-01-14T19:35:13.873Z,1.80
2019-01-14T19:37:49.215Z,1.90
2019-01-14T19:40:22.118Z,1.80
2019-01-14T19:42:53.254Z,1.80
2019-01-14T19:45:24.197Z,1.80
2019-01-14T19:47:58.106Z,1.80
2019-01-14T19:50:31.142Z,1.70
2019-01-14T19:53:02.518Z,1.83
2019-01-14T19:55:36.956Z,1.80
2019-01-14T19:58:09.537Z,1.73
2019-01-14T20:00:46.338Z,1.70
2019-01-14T20:03:16.853Z,1.80
2019-01-14T20:05:47.448Z,1.83
2019-01-14T20:08:21.989Z,2.07
2019-01-14T20:10:58.056Z,1.80
2019-01-14T20:13:28.585Z,1.63
2019-01-14T20:16:40.063Z,1.63
2019-01-14T20:19:57.758Z,1.70
2019-01-14T20:34:37.258Z,1.63
2019-01-14T20:37:35.655Z,1.70
2019-01-14T21:01:19.472Z,1.53
2019-01-14T21:25:19.908Z,1.67
2019-01-14T21:34:24.462Z,1.60
2019-01-14T21:37:38.411Z,1.63
2019-01-14T21:40:34.931Z,1.60
2019-01-14T21:43:59.793Z,1.70
2019-01-14T21:52:23.904Z,1.60
2019-01-14T21:55:55.070Z,1.40
2019-01-14T21:59:37.203Z,1.50
2019-01-14T22:03:33.331Z,1.30
2019-01-14T22:05:49.573Z,1.47
2019-01-14T22:14:47.021Z,1.53
2019-01-14T22:18:08.239Z,1.50
2019-01-14T22:23:23.555Z,1.40
2019-01-14T22:30:45.961Z,1.50
2019-01-14T22:43:53.375Z,1.60
2019-01-14T22:54:37.075Z,1.40
2019-01-14T22:56:58.069Z,1.50
2019-01-14T23:13:37.380Z,1.50
2019-01-14T23:17:18.157Z,1.50
2019-01-14T23:22:11.152Z,1.60
2019-01-14T23:27:52.929Z,1.57
2019-01-14T23:30:41.140Z,1.53
2019-01-14T23:33:49.186Z,1.57
2019-01-14T23:43:19.271Z,1.57
2019-01-14T23:46:10.611Z,1.50
2019-01-14T23:52:23.459Z,1.40
2019-01-14T23:55:30.420Z,1.70
2019-01-14T23:58:44.886Z,1.80
